createdAt,value
2023-05-25T00:01:02.982Z,77.30
2023-05-25T00:03:36.541Z,76.00
2023-05-25T00:06:08.289Z,76.90
2023-05-25T00:08:43.186Z,77.60
2023-05-25T00:11:14.972Z,78.60
2023-05-25T00:13:45.827Z,78.70
2023-05-25T00:16:17.005Z,79.30
2023-05-25T00:18:50.182Z,79.40
2023-05-25T00:21:21.749Z,79.70
2023-05-25T00:23:55.312Z,79.80
2023-05-25T00:26:27.179Z,80.00
2023-05-25T00:29:00.660Z,79.90
2023-05-25T00:31:33.200Z,80.10
2023-05-25T00:34:04.419Z,80.50
2023-05-25T00:36:36.091Z,80.80
2023-05-25T00:39:10.447Z,81.00
2023-05-25T00:41:45.206Z,81.50
2023-05-25T00:44:22.244Z,81.50
2023-05-25T00:46:55.033Z,81.90
2023-05-25T00:49:26.187Z,82.00
2023-05-25T00:52:01.394Z,82.20
2023-05-25T00:54:38.054Z,83.30
2023-05-25T00:57:11.721Z,83.00
2023-05-25T00:59:48.110Z,83.40
2023-05-25T01:02:22.416Z,83.90
2023-05-25T01:05:00.044Z,84.10
2023-05-25T01:07:34.230Z,84.50
2023-05-25T01:10:10.111Z,85.10
2023-05-25T01:12:43.627Z,86.40
2023-05-25T01:15:16.922Z,87.00
2023-05-25T01:17:54.305Z,87.80
2023-05-25T01:20:25.598Z,88.30
2023-05-25T01:23:03.060Z,89.30
2023-05-25T01:25:38.707Z,90.10
2023-05-25T01:28:14.350Z,90.30
2023-05-25T01:30:49.568Z,90.40
2023-05-25T01:33:22.262Z,90.50
2023-05-25T01:35:54.266Z,90.70
2023-05-25T01:38:28.475Z,90.70
2023-05-25T01:40:59.361Z,90.80
2023-05-25T01:43:31.255Z,91.10
2023-05-25T01:46:05.701Z,90.80
2023-05-25T01:48:46.054Z,91.60
2023-05-25T01:51:24.779Z,91.00
2023-05-25T01:54:04.585Z,91.00
2023-05-25T01:56:39.154Z,91.00
2023-05-25T01:59:12.134Z,91.00
2023-05-25T02:01:44.240Z,91.00
2023-05-25T02:04:15.947Z,91.10
2023-05-25T02:06:46.900Z,91.20
2023-05-25T02:09:20.926Z,91.20
2023-05-25T02:11:52.771Z,91.40
2023-05-25T02:14:24.118Z,91.50
2023-05-25T02:16:55.634Z,91.50
2023-05-25T02:19:27.018Z,91.60
2023-05-25T02:21:57.979Z,91.60
2023-05-25T02:24:35.177Z,91.60
2023-05-25T02:27:06.153Z,91.70
2023-05-25T02:29:38.117Z,91.90
2023-05-25T02:32:10.351Z,91.70
2023-05-25T02:34:41.622Z,91.70
2023-05-25T02:37:12.224Z,91.80
2023-05-25T02:39:46.133Z,92.30
2023-05-25T02:42:17.861Z,91.70
2023-05-25T02:44:49.687Z,91.50
2023-05-25T02:47:22.033Z,91.30
2023-05-25T02:49:53.536Z,91.40
2023-05-25T02:52:26.110Z,91.50
2023-05-25T02:55:00.215Z,92.10
2023-05-25T02:57:40.250Z,91.70
2023-05-25T03:00:14.996Z,91.70
2023-05-25T03:02:47.228Z,91.70
2023-05-25T03:05:21.777Z,91.90
2023-05-25T03:07:53.005Z,92.00
2023-05-25T03:10:27.357Z,91.90
2023-05-25T03:12:58.507Z,92.00
2023-05-25T03:15:29.788Z,92.00
2023-05-25T03:18:01.751Z,92.00
2023-05-25T03:20:37.731Z,92.30
2023-05-25T03:23:08.973Z,91.90
2023-05-25T03:25:43.994Z,91.90
2023-05-25T03:28:15.041Z,91.90
2023-05-25T03:30:46.492Z,91.90
2023-05-25T03:33:17.819Z,91.80
2023-05-25T03:35:52.232Z,91.80
2023-05-25T03:38:22.728Z,91.70
2023-05-25T03:40:56.764Z,92.00
2023-05-25T03:43:27.758Z,91.50
2023-05-25T03:45:59.265Z,91.50
2023-05-25T03:48:30.314Z,91.50
2023-05-25T03:51:01.608Z,91.60
2023-05-25T03:53:32.569Z,91.60
2023-05-25T03:56:06.467Z,91.60
2023-05-25T03:58:37.352Z,91.70
2023-05-25T04:01:10.036Z,91.70
2023-05-25T04:03:41.030Z,91.80
2023-05-25T04:06:12.380Z,91.90
2023-05-25T04:08:44.421Z,92.10
2023-05-25T04:11:18.241Z,92.20
2023-05-25T04:13:49.177Z,92.30
2023-05-25T04:16:22.004Z,92.40
2023-05-25T04:18:53.021Z,92.50
2023-05-25T04:21:25.232Z,92.70
2023-05-25T04:23:56.845Z,92.70
2023-05-25T04:26:32.056Z,92.90
2023-05-25T04:29:04.957Z,93.10
2023-05-25T04:31:59.411Z,93.20
2023-05-25T04:34:49.184Z,93.30
2023-05-25T04:37:27.755Z,93.40
2023-05-25T04:40:01.957Z,93.60
2023-05-25T04:42:38.157Z,93.70
2023-05-25T04:45:12.580Z,93.90
2023-05-25T04:47:43.947Z,94.00
2023-05-25T04:50:16.215Z,94.10
2023-05-25T04:52:47.814Z,94.20
2023-05-25T04:55:19.147Z,94.20
2023-05-25T04:57:53.546Z,94.40
2023-05-25T05:00:25.356Z,94.50
2023-05-25T05:02:59.123Z,94.60
2023-05-25T05:05:30.924Z,94.60
2023-05-25T05:08:04.665Z,94.60
2023-05-25T05:10:36.569Z,94.60
2023-05-25T05:13:11.550Z,94.70
2023-05-25T05:15:42.819Z,94.80
2023-05-25T05:18:14.479Z,95.10
2023-05-25T05:20:45.561Z,94.90
2023-05-25T05:23:17.268Z,95.00
2023-05-25T05:25:49.013Z,95.10
2023-05-25T05:28:27.611Z,95.20
2023-05-25T05:30:58.838Z,95.30
2023-05-25T05:33:30.838Z,95.40
2023-05-25T05:36:04.228Z,95.40
2023-05-25T05:38:35.768Z,95.40
2023-05-25T05:41:11.615Z,95.40
2023-05-25T05:43:46.717Z,95.50
2023-05-25T05:46:17.686Z,95.60
2023-05-25T05:48:48.948Z,95.60
2023-05-25T05:51:19.496Z,95.50
2023-05-25T05:53:51.261Z,95.80
2023-05-25T05:56:22.649Z,95.50
2023-05-25T05:58:56.906Z,95.50
2023-05-25T06:01:28.105Z,95.60
2023-05-25T06:03:59.665Z,95.60
2023-05-25T06:06:35.212Z,95.60
2023-05-25T06:09:08.167Z,95.60
2023-05-25T06:11:40.564Z,95.60
2023-05-25T06:14:16.477Z,95.70
2023-05-25T06:16:49.171Z,95.70
2023-05-25T06:19:21.786Z,95.80
2023-05-25T06:21:53.284Z,96.00
2023-05-25T06:24:26.016Z,96.00
2023-05-25T06:26:57.018Z,96.00
2023-05-25T06:29:31.160Z,96.00
2023-05-25T06:32:03.393Z,96.10
2023-05-25T06:34:37.366Z,96.10
2023-05-25T06:37:09.832Z,96.00
2023-05-25T06:39:43.514Z,95.90
2023-05-25T06:42:15.466Z,95.90
2023-05-25T06:44:58.419Z,95.80
2023-05-25T06:47:31.317Z,96.00
2023-05-25T06:50:02.839Z,95.50
2023-05-25T06:52:33.896Z,95.40
2023-05-25T06:55:05.706Z,95.40
2023-05-25T06:57:37.038Z,95.40
2023-05-25T07:00:15.112Z,95.40
2023-05-25T07:02:46.747Z,95.30
2023-05-25T07:05:18.253Z,95.20
2023-05-25T07:07:49.423Z,95.10
2023-05-25T07:10:21.159Z,94.90
2023-05-25T07:12:52.831Z,94.80
2023-05-25T07:15:27.138Z,94.80
2023-05-25T07:17:59.154Z,94.80
2023-05-25T07:20:30.724Z,94.60
2023-05-25T07:23:02.282Z,94.50
2023-05-25T07:25:33.920Z,94.50
2023-05-25T07:28:04.979Z,94.40
2023-05-25T07:30:38.913Z,94.30
2023-05-25T07:33:10.329Z,94.30
2023-05-25T07:35:41.688Z,94.40
2023-05-25T07:38:13.090Z,94.30
2023-05-25T07:40:44.898Z,94.30
2023-05-25T07:43:15.823Z,94.30
2023-05-25T07:45:49.731Z,94.30
2023-05-25T07:48:20.763Z,94.30
2023-05-25T07:50:52.761Z,94.30
2023-05-25T07:53:23.705Z,94.30
2023-05-25T07:55:56.115Z,94.30
2023-05-25T07:58:27.026Z,94.20
2023-05-25T08:01:00.971Z,94.20
2023-05-25T08:03:40.370Z,94.20
2023-05-25T08:06:20.125Z,94.10
2023-05-25T08:08:51.018Z,94.10
2023-05-25T08:11:27.133Z,94.10
2023-05-25T08:13:58.328Z,94.20
2023-05-25T08:16:32.317Z,94.20
2023-05-25T08:19:03.317Z,94.10
2023-05-25T08:21:38.051Z,94.00
2023-05-25T08:24:09.720Z,94.00
2023-05-25T08:26:53.075Z,93.90
2023-05-25T08:29:25.747Z,93.80
2023-05-25T08:31:59.648Z,93.60
2023-05-25T08:34:30.532Z,93.30
2023-05-25T08:37:02.001Z,93.20
2023-05-25T08:39:34.797Z,93.20
2023-05-25T08:42:07.383Z,92.90
2023-05-25T08:44:39.994Z,92.90
2023-05-25T08:47:15.832Z,92.60
2023-05-25T08:49:48.403Z,92.20
2023-05-25T08:52:24.726Z,92.50
2023-05-25T08:54:58.533Z,92.00
2023-05-25T08:57:37.667Z,91.70
2023-05-25T09:00:17.225Z,91.30
2023-05-25T09:02:54.427Z,91.10
2023-05-25T09:05:29.298Z,91.10
2023-05-25T09:08:01.725Z,91.00
2023-05-25T09:10:35.597Z,91.00
2023-05-25T09:13:20.327Z,90.90
2023-05-25T09:15:53.710Z,90.70
2023-05-25T09:18:27.783Z,90.80
2023-05-25T09:20:58.833Z,90.60
2023-05-25T09:23:30.240Z,90.50
2023-05-25T09:26:01.701Z,90.50
2023-05-25T09:28:32.971Z,90.60
2023-05-25T09:31:04.230Z,90.50
2023-05-25T09:33:41.891Z,90.40
2023-05-25T09:36:18.344Z,90.50
2023-05-25T09:38:50.904Z,90.50
2023-05-25T09:41:22.587Z,90.50
2023-05-25T09:44:06.483Z,90.40
2023-05-25T09:46:41.771Z,90.50
2023-05-25T09:49:16.690Z,90.50
2023-05-25T09:51:49.158Z,90.50
2023-05-25T09:54:23.118Z,90.60
2023-05-25T09:56:54.848Z,90.50
2023-05-25T09:59:27.052Z,90.50
2023-05-25T10:02:05.810Z,90.50
2023-05-25T10:04:42.792Z,90.50
2023-05-25T10:07:14.342Z,90.30
2023-05-25T10:09:49.362Z,90.50
2023-05-25T10:12:23.492Z,90.50
2023-05-25T10:14:55.108Z,90.50
2023-05-25T10:17:27.577Z,90.40
2023-05-25T10:20:05.617Z,90.00
2023-05-25T10:22:47.599Z,89.90
2023-05-25T10:25:26.546Z,90.10
2023-05-25T10:28:03.221Z,90.20
2023-05-25T10:30:37.303Z,90.40
2023-05-25T10:33:09.458Z,90.40
2023-05-25T10:36:01.526Z,90.20
2023-05-25T10:38:37.264Z,90.30
2023-05-25T10:41:11.865Z,90.40
2023-05-25T10:43:44.100Z,90.50
2023-05-25T10:46:15.751Z,90.50
2023-05-25T10:48:52.079Z,90.60
2023-05-25T10:51:26.216Z,90.90
2023-05-25T10:54:03.896Z,91.00
2023-05-25T10:56:35.420Z,91.30
2023-05-25T10:59:06.560Z,91.40
2023-05-25T11:01:54.733Z,91.70
2023-05-25T11:04:27.675Z,92.20
2023-05-25T11:07:14.651Z,92.50
2023-05-25T11:09:47.315Z,93.20
2023-05-25T11:12:24.057Z,93.10
2023-05-25T11:15:15.789Z,93.30
2023-05-25T11:18:05.324Z,93.80
2023-05-25T11:20:38.497Z,93.90
2023-05-25T11:23:30.243Z,93.90
2023-05-25T11:26:09.069Z,94.10
2023-05-25T11:28:49.607Z,94.10
2023-05-25T11:31:23.677Z,94.00
2023-05-25T11:33:58.667Z,93.90
2023-05-25T11:36:31.879Z,93.80
2023-05-25T11:39:17.528Z,93.70
2023-05-25T11:41:55.756Z,93.70
2023-05-25T11:44:32.009Z,93.80
2023-05-25T11:47:09.056Z,93.90
2023-05-25T11:49:46.383Z,93.80
2023-05-25T11:52:18.564Z,93.80
2023-05-25T11:54:53.541Z,93.80
2023-05-25T11:57:25.726Z,93.80
2023-05-25T12:00:00.728Z,93.90
2023-05-25T12:02:40.209Z,94.10
2023-05-25T12:05:12.116Z,94.40
2023-05-25T12:07:47.329Z,94.20
2023-05-25T12:10:21.739Z,93.90
2023-05-25T12:12:58.566Z,94.10
2023-05-25T12:15:30.764Z,94.10
2023-05-25T12:18:01.790Z,93.90
2023-05-25T12:20:33.637Z,93.60
2023-05-25T12:23:04.684Z,93.80
2023-05-25T12:25:49.828Z,93.40
2023-05-25T12:28:22.562Z,93.40
2023-05-25T12:30:53.919Z,93.20
2023-05-25T12:33:25.325Z,92.90
2023-05-25T12:35:56.796Z,91.90
2023-05-25T12:38:27.688Z,91.50
2023-05-25T12:41:11.416Z,91.50
2023-05-25T12:43:44.306Z,91.10
2023-05-25T12:46:27.941Z,90.90
2023-05-25T12:48:58.912Z,90.50
2023-05-25T12:51:40.503Z,90.00
2023-05-25T12:54:11.612Z,90.10
2023-05-25T12:57:02.693Z,89.40
2023-05-25T12:59:33.871Z,88.80
2023-05-25T13:02:05.718Z,88.40
2023-05-25T13:04:37.112Z,84.90
2023-05-25T13:07:09.635Z,83.60
2023-05-25T13:09:41.003Z,82.80
2023-05-25T13:12:14.902Z,82.00
2023-05-25T13:14:46.830Z,81.40
2023-05-25T13:17:18.653Z,79.70
2023-05-25T13:19:49.699Z,78.30
2023-05-25T13:22:21.431Z,78.20
2023-05-25T13:24:52.466Z,78.20
2023-05-25T13:27:26.622Z,77.90
2023-05-25T13:29:57.572Z,77.20
2023-05-25T13:32:31.806Z,77.90
2023-05-25T13:35:07.444Z,78.50
2023-05-25T13:37:38.728Z,78.10
2023-05-25T13:40:11.445Z,76.80
2023-05-25T13:42:45.419Z,77.90
2023-05-25T13:45:16.401Z,79.00
2023-05-25T13:47:47.897Z,79.50
2023-05-25T13:50:24.251Z,78.50
2023-05-25T13:53:06.366Z,79.00
2023-05-25T13:55:38.634Z,78.00
2023-05-25T13:58:12.657Z,78.10
2023-05-25T14:00:43.696Z,78.90
2023-05-25T14:03:21.717Z,80.30
2023-05-25T14:05:54.185Z,81.20
2023-05-25T14:08:25.571Z,82.00
2023-05-25T14:10:57.677Z,82.10
2023-05-25T14:13:31.693Z,82.00
2023-05-25T14:16:03.850Z,83.50
2023-05-25T14:18:35.702Z,85.20
2023-05-25T14:21:06.913Z,86.80
2023-05-25T14:23:38.500Z,88.20
2023-05-25T14:26:09.462Z,89.40
2023-05-25T14:28:48.734Z,90.40
2023-05-25T14:31:19.942Z,91.10
2023-05-25T14:33:51.227Z,91.00
2023-05-25T14:36:22.346Z,91.40
2023-05-25T14:38:57.646Z,91.40
2023-05-25T14:41:28.689Z,91.10
2023-05-25T14:44:02.703Z,90.70
2023-05-25T14:46:33.636Z,89.90
2023-05-25T14:49:07.390Z,89.00
2023-05-25T14:51:38.354Z,88.80
2023-05-25T14:54:13.898Z,88.60
2023-05-25T14:56:44.832Z,88.50
2023-05-25T14:59:18.831Z,87.90
2023-05-25T15:01:49.834Z,87.80
2023-05-25T15:04:21.393Z,87.50
2023-05-25T15:06:52.628Z,87.70
2023-05-25T15:09:23.920Z,86.70
2023-05-25T15:11:54.778Z,86.40
2023-05-25T15:14:28.748Z,86.50
2023-05-25T15:17:03.045Z,86.40
2023-05-25T15:19:34.486Z,86.40
2023-05-25T15:22:08.415Z,85.90
2023-05-25T15:24:39.897Z,85.40
2023-05-25T15:27:11.249Z,85.20
2023-05-25T15:29:47.843Z,84.90
2023-05-25T15:32:22.346Z,84.30
2023-05-25T15:34:55.873Z,84.50
2023-05-25T15:37:27.231Z,84.40
2023-05-25T15:39:59.026Z,84.80
2023-05-25T15:42:30.076Z,84.70
2023-05-25T15:45:04.173Z,84.30
2023-05-25T15:47:35.104Z,84.40
2023-05-25T15:53:27.556Z,84.10
2023-05-25T15:56:01.704Z,83.90
2023-05-25T15:58:34.736Z,84.40
2023-05-25T16:01:10.104Z,84.90
2023-05-25T16:03:45.153Z,85.40
2023-05-25T16:06:16.741Z,85.60
2023-05-25T16:08:47.760Z,86.10
2023-05-25T16:11:20.826Z,86.40
2023-05-25T16:13:51.758Z,86.70
2023-05-25T16:16:25.717Z,87.00
2023-05-25T16:18:56.857Z,88.10
2023-05-25T16:21:28.398Z,88.10
2023-05-25T16:23:59.304Z,87.80
2023-05-25T16:26:30.577Z,88.10
2023-05-25T16:29:05.769Z,88.90
2023-05-25T16:31:39.872Z,88.60
2023-05-25T16:34:10.795Z,88.90
2023-05-25T16:36:42.054Z,89.00
2023-05-25T16:39:13.028Z,88.80
2023-05-25T16:41:48.223Z,89.30
2023-05-25T16:44:20.491Z,88.30
2023-05-25T16:47:09.307Z,88.60
2023-05-25T16:49:40.846Z,87.70
2023-05-25T16:52:12.381Z,87.40
2023-05-25T16:54:43.243Z,87.20
2023-05-25T16:57:14.546Z,87.50
2023-05-25T16:59:46.087Z,88.00
2023-05-25T17:02:20.504Z,87.60
2023-05-25T17:08:20.932Z,88.60
2023-05-25T17:10:56.970Z,88.50
2023-05-25T17:13:37.411Z,89.20
2023-05-25T17:16:08.846Z,89.50
2023-05-25T17:18:43.183Z,90.10
2023-05-25T17:21:17.883Z,90.50
2023-05-25T17:23:49.470Z,90.70
2023-05-25T17:26:20.432Z,91.10
2023-05-25T17:28:52.028Z,91.50
2023-05-25T17:31:23.396Z,91.60
2023-05-25T17:33:57.409Z,91.90
2023-05-25T17:36:28.553Z,92.30
2023-05-25T17:38:59.767Z,92.30
2023-05-25T17:41:31.147Z,92.60
2023-05-25T17:44:02.369Z,93.20
2023-05-25T17:46:33.117Z,92.70
2023-05-25T17:49:07.077Z,93.40
2023-05-25T17:51:37.934Z,93.60
2023-05-25T17:54:09.465Z,92.90
2023-05-25T17:56:40.382Z,93.20
2023-05-25T17:59:11.581Z,93.50
2023-05-25T18:01:42.263Z,93.80
2023-05-25T18:04:16.443Z,94.80
2023-05-25T18:06:47.423Z,94.30
2023-05-25T18:09:18.615Z,94.50
2023-05-25T18:11:49.322Z,94.60
2023-05-25T18:14:20.690Z,95.80
2023-05-25T18:16:51.242Z,96.00
2023-05-25T18:19:25.047Z,96.40
2023-05-25T18:21:56.256Z,96.60
2023-05-25T18:24:28.219Z,95.40
2023-05-25T18:27:00.167Z,95.70
2023-05-25T18:29:31.658Z,95.90
2023-05-25T18:32:02.579Z,96.20
2023-05-25T18:34:36.757Z,96.30
2023-05-25T18:37:08.048Z,96.50
2023-05-25T18:39:39.365Z,96.50
2023-05-25T18:42:19.406Z,96.60
2023-05-25T18:44:50.728Z,97.30
2023-05-25T18:47:21.832Z,96.60
2023-05-25T18:49:56.930Z,96.80
2023-05-25T18:52:38.396Z,96.90
2023-05-25T18:55:11.289Z,97.00
2023-05-25T18:57:42.401Z,97.20
2023-05-25T19:00:15.607Z,97.40
2023-05-25T19:02:47.395Z,97.60
2023-05-25T19:05:23.002Z,97.60
2023-05-25T19:07:59.244Z,97.70
2023-05-25T19:10:31.813Z,97.60
2023-05-25T19:13:03.294Z,97.50
2023-05-25T19:15:34.769Z,97.40
2023-05-25T19:18:09.847Z,97.30
2023-05-25T19:20:43.789Z,97.10
2023-05-25T19:23:15.025Z,97.10
2023-05-25T19:25:47.054Z,96.90
2023-05-25T19:28:18.253Z,96.90
2023-05-25T19:30:49.682Z,96.90
2023-05-25T19:33:20.824Z,96.80
2023-05-25T19:35:55.416Z,96.80
2023-05-25T19:38:34.290Z,96.70
2023-05-25T19:41:12.446Z,96.80
2023-05-25T19:43:44.093Z,96.70
2023-05-25T19:46:15.377Z,96.70
2023-05-25T19:48:46.659Z,96.60
2023-05-25T19:51:21.185Z,96.80
2023-05-25T19:53:52.707Z,96.60
2023-05-25T19:56:24.385Z,96.50
2023-05-25T19:58:58.336Z,96.50
2023-05-25T20:01:30.151Z,96.50
2023-05-25T20:04:02.111Z,96.40
2023-05-25T20:06:39.221Z,96.40
2023-05-25T20:09:12.836Z,96.30
2023-05-25T20:11:44.611Z,96.20
2023-05-25T20:14:16.531Z,96.10
2023-05-25T20:16:52.291Z,96.10
2023-05-25T20:19:23.792Z,96.10
2023-05-25T20:21:58.195Z,96.00
2023-05-25T20:24:29.280Z,95.90
2023-05-25T20:27:00.503Z,95.80
2023-05-25T20:29:31.597Z,95.70
2023-05-25T20:32:03.019Z,95.70
2023-05-25T20:34:34.730Z,95.60
2023-05-25T20:37:08.976Z,95.60
2023-05-25T20:39:40.077Z,95.70
2023-05-25T20:42:14.420Z,95.70
2023-05-25T20:44:46.168Z,95.70
2023-05-25T20:47:17.577Z,95.80
2023-05-25T20:49:48.742Z,95.80
2023-05-25T20:52:22.701Z,95.90
2023-05-25T20:54:53.711Z,95.90
2023-05-25T20:57:24.998Z,95.90
2023-05-25T21:00:00.061Z,95.90
2023-05-25T21:02:31.676Z,95.90
2023-05-25T21:05:02.633Z,95.90
2023-05-25T21:07:36.449Z,96.00
2023-05-25T21:10:08.155Z,95.90
2023-05-25T21:12:39.379Z,95.90
2023-05-25T21:15:10.704Z,95.90
2023-05-25T21:17:42.575Z,96.10
2023-05-25T21:20:14.382Z,96.00
2023-05-25T21:22:48.522Z,96.10
2023-05-25T21:25:19.445Z,96.30
2023-05-25T21:27:50.836Z,96.30
2023-05-25T21:30:22.453Z,96.30
2023-05-25T21:32:54.267Z,96.40
2023-05-25T21:35:25.269Z,96.60
2023-05-25T21:37:59.251Z,96.70
2023-05-25T21:40:30.201Z,96.80
2023-05-25T21:43:01.604Z,96.90
2023-05-25T21:45:32.463Z,97.00
2023-05-25T21:48:03.738Z,97.10
2023-05-25T21:50:36.213Z,97.20
2023-05-25T21:53:10.044Z,97.80
2023-05-25T21:55:41.380Z,97.50
2023-05-25T21:58:12.464Z,97.70
2023-05-25T22:00:43.505Z,97.80
2023-05-25T22:03:14.981Z,98.00
2023-05-25T22:05:46.934Z,98.00
2023-05-25T22:08:20.965Z,98.20
2023-05-25T22:10:52.015Z,98.30
2023-05-25T22:13:23.171Z,98.40
2023-05-25T22:15:53.924Z,98.50
2023-05-25T22:18:24.951Z,98.60
2023-05-25T22:20:56.414Z,98.70
2023-05-25T22:23:30.108Z,98.80
2023-05-25T22:26:00.784Z,98.90
2023-05-25T22:28:31.840Z,98.90
2023-05-25T22:31:02.605Z,99.00
2023-05-25T22:33:33.797Z,99.00
2023-05-25T22:36:05.175Z,99.00
2023-05-25T22:38:38.804Z,99.10
2023-05-25T22:41:09.673Z,99.20
2023-05-25T22:43:40.916Z,99.30
2023-05-25T22:46:11.601Z,99.30
2023-05-25T22:48:43.758Z,99.90
2023-05-25T22:51:15.025Z,99.30
2023-05-25T22:53:48.939Z,99.40
2023-05-25T22:56:20.334Z,99.40
2023-05-25T22:58:51.892Z,99.50
2023-05-25T23:01:22.775Z,99.50
2023-05-25T23:03:53.885Z,99.60
2023-05-25T23:06:24.806Z,99.60
2023-05-25T23:08:58.560Z,99.60
2023-05-25T23:11:29.294Z,99.70
2023-05-25T23:14:00.963Z,99.70
2023-05-25T23:16:31.690Z,99.80
2023-05-25T23:19:02.991Z,99.90
2023-05-25T23:21:33.866Z,99.90
2023-05-25T23:24:08.107Z,99.90
2023-05-25T23:26:40.087Z,99.90
2023-05-25T23:29:11.162Z,99.90
2023-05-25T23:31:41.987Z,99.90
2023-05-25T23:34:13.090Z,99.90
2023-05-25T23:36:43.758Z,99.90
2023-05-25T23:39:17.470Z,99.90
2023-05-25T23:41:49.050Z,99.90
2023-05-25T23:44:20.170Z,99.90
2023-05-25T23:46:50.892Z,99.90
2023-05-25T23:49:22.153Z,99.90
2023-05-25T23:51:52.774Z,99.90
2023-05-25T23:54:26.470Z,99.90
2023-05-25T23:56:57.624Z,99.90
2023-05-25T23:59:29.057Z,99.90
